createdAt,value
2019-04-21T00:00:24.152Z,7.50
2019-04-21T00:01:24.245Z,7.50
2019-04-21T00:02:30.143Z,7.20
2019-04-21T00:03:34.514Z,7.90
2019-04-21T00:04:40.817Z,7.40
2019-04-21T00:05:43.678Z,6.90
2019-04-21T00:06:48.168Z,7.30
2019-04-21T00:07:45.353Z,8.10
2019-04-21T00:08:41.504Z,7.30
2019-04-21T00:09:50.172Z,7.10
2019-04-21T00:10:47.967Z,7.00
2019-04-21T00:11:41.128Z,8.00
2019-04-21T00:12:40.605Z,7.10
2019-04-21T00:13:38.130Z,6.90
2019-04-21T00:14:35.013Z,7.30
2019-04-21T00:15:32.918Z,7.20
2019-04-21T00:16:33.470Z,7.20
2019-04-21T00:17:26.344Z,7.30
2019-04-21T00:18:23.374Z,7.20
2019-04-21T00:19:26.800Z,7.60
2019-04-21T00:20:31.231Z,6.60
2019-04-21T00:21:34.495Z,6.90
2019-04-21T00:22:38.060Z,7.40
2019-04-21T00:23:42.479Z,7.60
2019-04-21T00:24:33.662Z,7.10
2019-04-21T00:25:36.188Z,7.20
2019-04-21T00:26:37.656Z,7.00
2019-04-21T00:27:41.335Z,7.70
2019-04-21T00:28:50.453Z,6.60
2019-04-21T00:29:42.537Z,7.10
2019-04-21T00:30:44.354Z,7.50
2019-04-21T00:31:38.185Z,7.60
2019-04-21T00:32:38.170Z,6.90
2019-04-21T00:33:28.844Z,7.40
2019-04-21T00:34:23.766Z,6.90
2019-04-21T00:35:25.982Z,6.90
2019-04-21T00:36:29.414Z,7.20
2019-04-21T00:37:44.707Z,7.50
2019-04-21T00:38:51.431Z,7.50
2019-04-21T00:40:50.432Z,7.20
2019-04-21T00:41:43.356Z,7.20
2019-04-21T00:42:44.638Z,8.00
2019-04-21T00:43:37.260Z,7.30
2019-04-21T00:44:35.858Z,8.10
2019-04-21T00:45:33.696Z,8.10
2019-04-21T00:46:40.332Z,7.60
2019-04-21T00:47:38.838Z,7.70
2019-04-21T00:48:43.972Z,8.10
2019-04-21T00:49:38.151Z,7.50
2019-04-21T00:50:53.231Z,7.40
2019-04-21T00:51:54.138Z,7.40
2019-04-21T00:52:58.181Z,8.10
2019-04-21T00:53:51.189Z,7.30
2019-04-21T00:54:55.432Z,7.40
2019-04-21T00:55:51.128Z,8.70
2019-04-21T00:56:48.309Z,8.20
2019-04-21T00:57:53.442Z,7.90
2019-04-21T00:58:47.457Z,7.50
2019-04-21T00:59:48.306Z,8.40
2019-04-21T01:00:47.562Z,8.60
2019-04-21T01:01:44.662Z,8.40
2019-04-21T01:02:49.939Z,8.40
2019-04-21T01:03:46.288Z,7.90
2019-04-21T01:04:44.900Z,8.20
2019-04-21T01:05:46.912Z,8.10
2019-04-21T01:06:48.435Z,8.50
2019-04-21T01:07:41.034Z,7.80
2019-04-21T01:08:42.683Z,8.60
2019-04-21T01:09:36.693Z,8.20
2019-04-21T01:10:34.921Z,7.60
2019-04-21T01:11:44.415Z,8.60
2019-04-21T01:12:41.783Z,8.40
2019-04-21T01:13:45.470Z,8.80
2019-04-21T01:14:49.710Z,8.70
2019-04-21T01:15:50.132Z,9.10
2019-04-21T01:16:48.554Z,8.10
2019-04-21T01:17:48.126Z,8.40
2019-04-21T01:18:46.278Z,8.30
2019-04-21T01:19:39.774Z,8.80
2019-04-21T01:20:22.930Z,8.60
2019-04-21T01:21:21.922Z,8.60
2019-04-21T01:22:21.887Z,8.40
2019-04-21T01:23:23.314Z,8.50
2019-04-21T01:24:30.727Z,8.40
2019-04-21T01:25:30.327Z,8.30
2019-04-21T01:26:33.432Z,8.80
2019-04-21T01:27:48.484Z,8.60
2019-04-21T01:28:40.037Z,9.40
2019-04-21T01:29:46.001Z,8.20
2019-04-21T01:30:39.945Z,8.50
2019-04-21T01:31:37.659Z,8.60
2019-04-21T01:32:46.994Z,8.60
2019-04-21T01:33:44.900Z,9.10
2019-04-21T01:34:45.478Z,8.40
2019-04-21T01:35:46.832Z,10.90
2019-04-21T01:36:38.633Z,10.30
2019-04-21T01:37:49.528Z,9.40
2019-04-21T01:38:52.484Z,9.70
2019-04-21T01:39:51.552Z,8.50
2019-04-21T01:40:47.523Z,8.50
2019-04-21T01:41:49.208Z,8.20
2019-04-21T01:42:48.472Z,8.30
2019-04-21T01:43:42.862Z,7.90
2019-04-21T01:44:46.144Z,9.40
2019-04-21T01:45:46.792Z,9.20
2019-04-21T01:46:40.771Z,8.40
2019-04-21T01:47:40.867Z,8.70
2019-04-21T01:48:41.828Z,8.40
2019-04-21T01:49:34.749Z,8.60
2019-04-21T01:50:41.177Z,8.20
2019-04-21T01:51:45.277Z,8.40
2019-04-21T01:52:54.691Z,8.80
2019-04-21T01:53:42.478Z,8.60
2019-04-21T01:54:40.640Z,8.50
2019-04-21T01:55:45.642Z,8.90
2019-04-21T01:56:38.689Z,8.70
2019-04-21T01:57:37.740Z,8.30
2019-04-21T01:58:34.178Z,9.10
2019-04-21T01:59:36.691Z,8.50
2019-04-21T02:00:39.090Z,8.70
2019-04-21T02:01:42.457Z,8.70
2019-04-21T02:02:49.202Z,8.30
2019-04-21T02:03:54.347Z,8.80
2019-04-21T02:04:54.183Z,8.30
2019-04-21T02:05:44.384Z,8.40
2019-04-21T02:06:44.433Z,8.80
2019-04-21T02:07:47.501Z,8.80
2019-04-21T02:08:41.818Z,8.40
2019-04-21T02:09:46.348Z,9.00
2019-04-21T02:10:49.101Z,8.10
2019-04-21T02:11:47.105Z,8.80
2019-04-21T02:12:45.938Z,8.40
2019-04-21T02:13:51.261Z,8.60
2019-04-21T02:14:51.524Z,8.20
2019-04-21T02:15:52.817Z,8.30
2019-04-21T02:16:42.252Z,8.50
2019-04-21T02:17:44.677Z,8.60
2019-04-21T02:18:38.993Z,8.40
2019-04-21T02:19:36.347Z,8.70
2019-04-21T02:20:32.728Z,8.60
2019-04-21T02:22:57.385Z,8.40
2019-04-21T02:23:47.920Z,8.20
2019-04-21T02:24:51.604Z,8.50
2019-04-21T02:25:44.533Z,8.40
2019-04-21T02:26:47.703Z,8.40
2019-04-21T02:27:42.869Z,8.90
2019-04-21T02:28:50.289Z,9.00
2019-04-21T02:29:48.683Z,8.70
2019-04-21T02:30:55.066Z,8.90
2019-04-21T02:32:00.320Z,9.00
2019-04-21T02:35:13.656Z,8.60
2019-04-21T02:36:02.745Z,9.00
2019-04-21T02:37:05.446Z,9.90
2019-04-21T02:38:03.852Z,9.20
2019-04-21T02:39:00.565Z,9.30
2019-04-21T02:39:57.331Z,9.30
2019-04-21T02:41:54.610Z,9.90
2019-04-21T02:43:00.221Z,9.70
2019-04-21T02:44:51.982Z,9.90
2019-04-21T02:45:56.318Z,9.60
2019-04-21T02:47:57.256Z,9.90
2019-04-21T02:48:56.404Z,9.80
2019-04-21T02:50:00.267Z,9.30
2019-04-21T02:50:47.274Z,10.30
2019-04-21T02:51:54.915Z,9.90
2019-04-21T02:52:52.372Z,9.20
2019-04-21T02:54:24.639Z,9.80
2019-04-21T02:55:51.417Z,9.60
2019-04-21T02:57:07.027Z,9.70
2019-04-21T02:57:59.405Z,9.50
2019-04-21T02:59:59.566Z,10.00
2019-04-21T03:01:12.763Z,9.70
2019-04-21T03:01:56.510Z,9.60
2019-04-21T03:03:54.584Z,9.10
2019-04-21T03:04:53.286Z,9.50
2019-04-21T03:05:50.832Z,9.90
2019-04-21T03:07:55.448Z,10.20
2019-04-21T03:09:03.236Z,9.20
2019-04-21T03:10:54.121Z,11.90
2019-04-21T03:11:57.719Z,10.50
2019-04-21T03:12:56.965Z,10.90
2019-04-21T03:13:57.246Z,10.10
2019-04-21T03:15:59.267Z,10.60
2019-04-21T03:16:47.148Z,10.10
2019-04-21T03:17:59.729Z,10.40
2019-04-21T03:19:04.934Z,10.10
2019-04-21T03:21:00.170Z,9.60
2019-04-21T03:21:57.404Z,10.10
2019-04-21T03:22:57.282Z,9.60
2019-04-21T03:23:53.536Z,9.90
2019-04-21T03:26:07.329Z,9.40
2019-04-21T03:27:01.597Z,10.10
2019-04-21T03:27:57.270Z,9.90
2019-04-21T03:28:56.350Z,9.80
2019-04-21T03:29:57.093Z,9.90
2019-04-21T03:32:32.222Z,10.50
2019-04-21T03:33:41.023Z,9.30
2019-04-21T03:37:56.474Z,10.20
2019-04-21T03:38:48.367Z,10.00
2019-04-21T03:40:47.149Z,9.80
2019-04-21T03:42:04.016Z,10.50
2019-04-21T03:42:57.204Z,9.90
2019-04-21T03:43:56.744Z,9.90
2019-04-21T03:47:54.834Z,10.80
2019-04-21T03:48:51.619Z,10.20
2019-04-21T03:49:56.041Z,10.20
2019-04-21T03:50:58.785Z,10.50
2019-04-21T03:51:57.594Z,10.20
2019-04-21T03:52:53.302Z,10.50
2019-04-21T03:53:46.466Z,10.30
2019-04-21T03:54:54.099Z,10.10
2019-04-21T03:56:00.666Z,10.90
2019-04-21T03:57:10.976Z,10.50
2019-04-21T03:58:13.123Z,10.10
2019-04-21T04:00:03.640Z,10.00
2019-04-21T04:01:00.475Z,10.50
2019-04-21T04:02:03.916Z,10.00
2019-04-21T04:02:55.110Z,10.30
2019-04-21T04:04:11.580Z,10.50
2019-04-21T04:04:53.529Z,10.00
2019-04-21T04:06:57.096Z,10.60
2019-04-21T04:08:34.999Z,10.50
2019-04-21T04:09:54.050Z,10.40
2019-04-21T04:11:52.344Z,10.10
2019-04-21T04:12:50.343Z,10.10
2019-04-21T04:13:56.383Z,10.40
2019-04-21T04:14:55.419Z,10.00
2019-04-21T04:16:57.223Z,10.30
2019-04-21T04:17:46.483Z,10.90
2019-04-21T04:18:53.382Z,10.20
2019-04-21T04:19:53.592Z,9.90
2019-04-21T04:20:51.326Z,10.80
2019-04-21T04:21:57.183Z,10.30
2019-04-21T04:22:55.333Z,10.20
2019-04-21T04:23:52.142Z,10.70
2019-04-21T04:24:57.965Z,10.80
2019-04-21T04:25:53.577Z,10.40
2019-04-21T04:28:02.147Z,10.80
2019-04-21T04:28:56.313Z,10.60
2019-04-21T04:29:51.354Z,11.00
2019-04-21T04:30:56.150Z,10.70
2019-04-21T04:31:42.798Z,10.30
2019-04-21T04:32:54.148Z,11.20
2019-04-21T04:33:59.945Z,11.30
2019-04-21T04:34:56.899Z,11.50
2019-04-21T04:36:05.926Z,10.70
2019-04-21T04:37:12.765Z,11.40
2019-04-21T04:39:14.458Z,11.00
2019-04-21T04:40:03.589Z,10.50
2019-04-21T04:41:01.046Z,11.20
2019-04-21T04:42:03.571Z,10.90
2019-04-21T04:42:57.009Z,11.40
2019-04-21T04:43:54.657Z,10.90
2019-04-21T04:45:06.134Z,10.70
2019-04-21T04:45:54.096Z,11.10
2019-04-21T04:46:57.663Z,11.00
2019-04-21T04:47:53.204Z,11.60
2019-04-21T04:48:51.665Z,11.60
2019-04-21T04:49:54.351Z,11.30
2019-04-21T04:50:53.563Z,11.10
2019-04-21T04:52:48.501Z,10.80
2019-04-21T04:53:46.882Z,10.60
2019-04-21T04:54:59.455Z,10.90
2019-04-21T04:55:48.164Z,10.80
2019-04-21T04:57:03.198Z,11.10
2019-04-21T04:57:59.270Z,10.60
2019-04-21T04:59:23.270Z,10.90
2019-04-21T04:59:53.892Z,10.60
2019-04-21T05:01:00.365Z,10.70
2019-04-21T05:02:52.311Z,10.60
2019-04-21T05:03:56.941Z,10.50
2019-04-21T05:04:59.019Z,10.50
2019-04-21T05:06:06.872Z,10.80
2019-04-21T05:08:08.021Z,10.20
2019-04-21T05:10:57.381Z,10.40
2019-04-21T05:12:57.055Z,10.70
2019-04-21T05:13:55.397Z,10.40
2019-04-21T05:14:51.810Z,10.20
2019-04-21T05:15:53.252Z,10.60
2019-04-21T05:19:10.572Z,10.40
2019-04-21T05:20:03.058Z,11.10
2019-04-21T05:20:58.943Z,10.80
2019-04-21T05:22:05.719Z,10.50
2019-04-21T05:22:42.289Z,10.50
2019-04-21T05:23:45.615Z,10.30
2019-04-21T05:24:37.961Z,10.30
2019-04-21T05:25:37.542Z,11.10
2019-04-21T05:26:41.959Z,10.80
2019-04-21T05:27:33.567Z,10.50
2019-04-21T05:28:32.953Z,11.00
2019-04-21T05:29:37.777Z,11.30
2019-04-21T05:30:41.927Z,11.10
2019-04-21T05:31:44.562Z,12.30
2019-04-21T05:32:46.241Z,12.00
2019-04-21T05:33:47.550Z,11.70
2019-04-21T05:34:36.923Z,11.20
2019-04-21T05:35:43.669Z,11.70
2019-04-21T05:36:37.941Z,10.80
2019-04-21T05:37:35.329Z,11.00
2019-04-21T05:38:39.260Z,11.30
2019-04-21T05:39:34.739Z,11.00
2019-04-21T05:40:37.336Z,11.30
2019-04-21T05:41:31.384Z,11.70
2019-04-21T05:42:35.267Z,11.50
2019-04-21T05:43:39.049Z,10.50
2019-04-21T05:44:51.594Z,10.80
2019-04-21T05:45:46.019Z,10.70
2019-04-21T05:46:49.245Z,10.90
2019-04-21T05:47:46.353Z,10.90
2019-04-21T05:48:39.675Z,10.20
2019-04-21T05:49:38.715Z,10.30
2019-04-21T05:50:42.953Z,10.00
2019-04-21T05:51:37.237Z,10.20
2019-04-21T05:52:34.062Z,10.60
2019-04-21T05:53:42.677Z,10.70
2019-04-21T05:55:46.598Z,10.40
2019-04-21T05:56:40.713Z,9.80
2019-04-21T05:57:43.166Z,10.00
2019-04-21T05:58:43.581Z,10.70
2019-04-21T05:59:47.994Z,9.70
2019-04-21T06:00:59.455Z,9.90
2019-04-21T06:02:07.520Z,10.10
2019-04-21T06:02:44.128Z,10.60
2019-04-21T06:03:54.955Z,10.80
2019-04-21T06:05:10.441Z,10.60
2019-04-21T06:05:58.452Z,10.30
2019-04-21T06:06:53.797Z,10.90
2019-04-21T06:07:42.820Z,11.20
2019-04-21T06:09:54.131Z,11.50
2019-04-21T06:10:48.846Z,11.30
2019-04-21T06:11:42.334Z,11.50
2019-04-21T06:12:40.339Z,11.80
2019-04-21T06:13:48.262Z,11.60
2019-04-21T06:14:44.963Z,12.20
2019-04-21T06:15:42.971Z,11.90
2019-04-21T06:17:47.247Z,12.70
2019-04-21T06:18:48.869Z,12.60
2019-04-21T06:20:40.700Z,12.50
2019-04-21T06:21:40.566Z,11.90
2019-04-21T06:22:36.126Z,12.00
2019-04-21T06:23:40.334Z,12.00
2019-04-21T06:25:06.951Z,12.70
2019-04-21T06:25:55.492Z,11.80
2019-04-21T06:26:56.280Z,12.50
2019-04-21T06:28:00.045Z,12.00
2019-04-21T06:28:46.561Z,12.50
2019-04-21T06:29:46.666Z,12.30
2019-04-21T06:30:53.109Z,11.80
2019-04-21T06:33:45.963Z,11.90
2019-04-21T06:35:01.101Z,12.20
2019-04-21T06:36:11.412Z,11.70
2019-04-21T06:36:45.149Z,11.90
2019-04-21T06:38:53.871Z,11.50
2019-04-21T06:39:52.419Z,11.30
2019-04-21T06:40:42.462Z,11.30
2019-04-21T06:41:38.045Z,11.30
2019-04-21T06:42:51.385Z,11.20
2019-04-21T06:43:48.463Z,11.30
2019-04-21T06:44:48.337Z,10.90
2019-04-21T06:45:48.916Z,10.40
2019-04-21T06:46:39.378Z,10.10
2019-04-21T06:48:00.886Z,10.40
2019-04-21T06:48:40.934Z,10.10
2019-04-21T06:49:40.215Z,10.80
2019-04-21T06:50:47.968Z,10.30
2019-04-21T06:51:57.671Z,10.60
2019-04-21T06:52:51.960Z,10.60
2019-04-21T06:53:48.649Z,10.50
2019-04-21T06:54:54.908Z,10.30
2019-04-21T06:55:40.245Z,9.90
2019-04-21T06:57:46.290Z,9.30
2019-04-21T06:58:42.842Z,9.60
2019-04-21T06:59:38.434Z,9.60
2019-04-21T07:00:39.111Z,9.10
2019-04-21T07:02:05.577Z,9.20
2019-04-21T07:03:40.451Z,8.90
2019-04-21T07:04:46.419Z,9.10
2019-04-21T07:05:51.981Z,9.10
2019-04-21T07:06:49.566Z,9.20
2019-04-21T07:07:43.397Z,8.80
2019-04-21T07:08:46.197Z,8.50
2019-04-21T07:09:48.310Z,8.60
2019-04-21T07:10:37.054Z,8.70
2019-04-21T07:11:37.904Z,8.90
2019-04-21T07:12:39.344Z,8.60
2019-04-21T07:13:38.842Z,8.70
2019-04-21T07:14:48.226Z,8.70
2019-04-21T07:15:43.646Z,8.50
2019-04-21T07:16:45.219Z,8.40
2019-04-21T07:17:38.997Z,8.50
2019-04-21T07:18:42.848Z,8.90
2019-04-21T07:19:55.943Z,8.80
2019-04-21T07:20:47.772Z,8.70
2019-04-21T07:21:41.091Z,8.60
2019-04-21T07:22:44.697Z,8.90
2019-04-21T07:23:45.859Z,8.30
2019-04-21T07:24:42.908Z,8.60
2019-04-21T07:25:49.682Z,8.60
2019-04-21T07:26:44.730Z,8.40
2019-04-21T07:27:42.771Z,8.00
2019-04-21T07:28:49.568Z,8.90
2019-04-21T07:30:43.841Z,8.30
2019-04-21T07:31:48.154Z,8.20
2019-04-21T07:32:40.062Z,8.40
2019-04-21T07:34:38.536Z,8.00
2019-04-21T07:35:37.411Z,8.80
2019-04-21T07:37:41.286Z,9.30
2019-04-21T07:38:44.239Z,8.90
2019-04-21T07:39:40.513Z,9.20
2019-04-21T07:40:33.673Z,8.60
2019-04-21T07:41:39.786Z,8.40
2019-04-21T07:42:32.824Z,8.80
2019-04-21T07:43:35.582Z,9.00
2019-04-21T07:44:35.142Z,8.80
2019-04-21T07:45:36.713Z,8.70
2019-04-21T07:46:31.415Z,9.10
2019-04-21T07:47:40.556Z,9.40
2019-04-21T07:48:37.790Z,9.40
2019-04-21T07:49:43.457Z,9.00
2019-04-21T07:50:38.562Z,8.70
2019-04-21T07:51:45.272Z,8.40
2019-04-21T07:52:44.080Z,8.90
2019-04-21T07:53:42.353Z,9.00
2019-04-21T07:54:54.083Z,9.40
2019-04-21T07:56:25.518Z,9.30
2019-04-21T07:57:35.441Z,9.30
2019-04-21T07:58:47.711Z,8.70
2019-04-21T07:59:48.573Z,9.40
2019-04-21T08:00:47.770Z,9.20
2019-04-21T08:01:38.099Z,9.00
2019-04-21T08:02:40.420Z,9.40
2019-04-21T08:03:38.754Z,8.40
2019-04-21T08:05:37.643Z,8.90
2019-04-21T08:06:40.845Z,9.20
2019-04-21T08:07:47.663Z,9.20
2019-04-21T08:08:34.506Z,9.30
2019-04-21T08:09:42.275Z,9.80
2019-04-21T08:10:36.244Z,9.10
2019-04-21T08:11:35.554Z,9.10
2019-04-21T08:12:37.438Z,9.30
2019-04-21T08:13:41.544Z,9.30
2019-04-21T08:14:48.255Z,9.00
2019-04-21T08:15:40.273Z,9.70
2019-04-21T08:16:42.125Z,9.80
2019-04-21T08:17:35.943Z,9.40
2019-04-21T08:18:42.415Z,9.10
2019-04-21T08:19:36.991Z,9.20
2019-04-21T08:20:36.336Z,9.40
2019-04-21T08:21:42.016Z,9.20
2019-04-21T08:22:39.816Z,8.80
2019-04-21T08:23:39.908Z,9.60
2019-04-21T08:24:45.287Z,9.40
2019-04-21T08:25:48.582Z,9.50
2019-04-21T08:26:51.567Z,9.10
2019-04-21T08:27:41.812Z,9.20
2019-04-21T08:28:40.411Z,9.10
2019-04-21T08:29:39.401Z,9.20
2019-04-21T08:30:39.337Z,9.10
2019-04-21T08:31:51.676Z,8.90
2019-04-21T08:32:51.557Z,8.50
2019-04-21T08:34:01.964Z,8.60
2019-04-21T08:34:45.430Z,9.10
2019-04-21T08:36:36.346Z,8.50
2019-04-21T08:37:41.783Z,8.90
2019-04-21T08:38:40.221Z,8.70
2019-04-21T08:39:48.993Z,8.70
2019-04-21T08:40:42.428Z,8.80
2019-04-21T08:41:40.734Z,9.00
2019-04-21T08:42:38.358Z,8.50
2019-04-21T08:44:45.223Z,9.50
2019-04-21T08:45:41.398Z,8.50
2019-04-21T08:46:40.574Z,9.00
2019-04-21T08:47:39.875Z,9.20
2019-04-21T08:48:40.377Z,8.80
2019-04-21T08:49:36.477Z,8.80
2019-04-21T08:50:37.335Z,8.20
2019-04-21T08:51:40.393Z,9.20
2019-04-21T08:52:43.911Z,8.90
2019-04-21T08:53:43.791Z,8.70
2019-04-21T08:54:40.894Z,8.60
2019-04-21T08:55:45.496Z,8.60
2019-04-21T08:56:33.918Z,9.30
2019-04-21T08:57:42.713Z,8.90
2019-04-21T08:58:47.923Z,9.20
2019-04-21T08:59:36.096Z,9.00
2019-04-21T09:00:38.488Z,9.20
2019-04-21T09:01:36.421Z,8.90
2019-04-21T09:03:35.787Z,9.30
2019-04-21T09:04:33.557Z,8.80
2019-04-21T09:05:40.913Z,8.80
2019-04-21T09:06:54.252Z,9.20
2019-04-21T09:07:39.411Z,8.60
2019-04-21T09:08:39.632Z,9.70
2019-04-21T09:09:52.807Z,9.00
2019-04-21T09:10:36.591Z,8.90
2019-04-21T09:11:37.574Z,8.90
2019-04-21T09:12:34.673Z,8.80
2019-04-21T09:13:37.039Z,8.70
2019-04-21T09:14:36.647Z,8.60
2019-04-21T09:15:39.748Z,9.10
2019-04-21T09:16:33.871Z,8.80
2019-04-21T09:17:28.632Z,8.40
2019-04-21T09:18:35.539Z,9.20
2019-04-21T09:19:44.535Z,8.70
2019-04-21T09:20:46.053Z,7.90
2019-04-21T09:21:40.594Z,8.90
2019-04-21T09:22:35.816Z,8.70
2019-04-21T09:23:36.104Z,8.90
2019-04-21T09:24:33.028Z,8.80
2019-04-21T09:25:43.242Z,8.50
2019-04-21T09:26:36.995Z,8.20
2019-04-21T09:27:30.837Z,7.90
2019-04-21T09:28:32.963Z,8.70
2019-04-21T09:29:26.563Z,8.20
2019-04-21T09:30:17.625Z,7.80
2019-04-21T09:31:23.917Z,8.10
2019-04-21T09:32:23.232Z,8.30
2019-04-21T09:33:18.488Z,7.70
2019-04-21T09:34:25.069Z,8.10
2019-04-21T09:35:19.124Z,8.50
2019-04-21T09:36:21.195Z,8.20
2019-04-21T09:37:28.839Z,8.30
2019-04-21T09:38:27.686Z,7.60
2019-04-21T09:39:21.867Z,7.90
2019-04-21T09:40:27.441Z,8.30
2019-04-21T09:41:21.989Z,8.30
2019-04-21T09:42:19.717Z,8.10
2019-04-21T09:43:25.852Z,7.80
2019-04-21T09:44:25.501Z,8.30
2019-04-21T09:45:17.796Z,7.80
2019-04-21T09:46:16.359Z,8.10
2019-04-21T09:47:21.282Z,8.20
2019-04-21T09:48:20.751Z,7.30
2019-04-21T09:49:23.497Z,7.90
2019-04-21T09:50:17.499Z,7.80
2019-04-21T09:51:17.744Z,8.10
2019-04-21T09:52:20.891Z,7.80
2019-04-21T09:53:28.523Z,7.70
2019-04-21T09:54:23.125Z,8.10
2019-04-21T09:55:21.550Z,7.80
2019-04-21T09:56:28.604Z,7.00
2019-04-21T09:57:27.668Z,7.50
2019-04-21T09:58:27.337Z,7.00
2019-04-21T09:59:23.787Z,7.50
2019-04-21T10:00:21.096Z,7.70
2019-04-21T10:01:22.727Z,8.00
2019-04-21T10:02:30.465Z,7.20
2019-04-21T10:03:19.078Z,7.30
2019-04-21T10:04:16.459Z,7.20
2019-04-21T10:05:16.884Z,7.30
2019-04-21T10:06:17.454Z,7.10
2019-04-21T10:07:27.550Z,7.10
2019-04-21T10:08:17.127Z,6.70
2019-04-21T10:09:19.437Z,6.90
2019-04-21T10:10:17.235Z,6.90
2019-04-21T10:11:16.481Z,6.90
2019-04-21T10:12:16.328Z,7.00
2019-04-21T10:13:17.127Z,6.50
2019-04-21T10:14:17.487Z,6.80
2019-04-21T10:15:16.582Z,6.50
2019-04-21T10:16:17.461Z,6.00
2019-04-21T10:17:17.233Z,6.20
2019-04-21T10:18:17.248Z,6.30
2019-04-21T10:19:17.421Z,6.70
2019-04-21T10:20:17.135Z,7.10
2019-04-21T10:21:15.966Z,7.00
2019-04-21T10:22:17.063Z,6.90
2019-04-21T10:23:15.947Z,6.10
2019-04-21T10:24:16.048Z,6.70
2019-04-21T10:25:16.630Z,6.10
2019-04-21T10:26:16.792Z,6.60
2019-04-21T10:27:17.163Z,6.20
2019-04-21T10:28:16.769Z,6.10
2019-04-21T10:29:22.655Z,6.10
2019-04-21T10:30:16.904Z,6.40
2019-04-21T10:31:16.730Z,6.30
2019-04-21T10:32:18.306Z,6.50
2019-04-21T10:33:16.657Z,6.00
2019-04-21T10:34:17.033Z,6.90
2019-04-21T10:35:20.738Z,6.10
2019-04-21T10:36:17.107Z,6.10
2019-04-21T10:37:16.688Z,5.70
2019-04-21T10:38:27.367Z,5.90
2019-04-21T10:39:17.830Z,6.10
2019-04-21T10:40:15.937Z,6.10
2019-04-21T10:41:17.001Z,6.00
2019-04-21T10:42:15.739Z,5.80
2019-04-21T10:43:18.988Z,6.40
2019-04-21T10:44:17.069Z,5.80
2019-04-21T10:45:16.931Z,5.50
2019-04-21T10:46:16.926Z,5.80
2019-04-21T10:47:16.569Z,5.60
2019-04-21T10:48:16.853Z,5.60
2019-04-21T10:49:16.905Z,5.70
2019-04-21T10:50:16.272Z,5.60
2019-04-21T10:51:17.000Z,5.50
2019-04-21T10:52:15.637Z,5.30
2019-04-21T10:53:16.696Z,5.40
2019-04-21T10:54:15.877Z,5.20
2019-04-21T10:55:33.818Z,5.10
2019-04-21T10:56:25.131Z,5.60
2019-04-21T10:57:16.826Z,5.20
2019-04-21T10:58:16.223Z,5.10
2019-04-21T10:59:16.238Z,5.10
2019-04-21T11:00:16.063Z,5.20
2019-04-21T11:01:16.677Z,5.00
2019-04-21T11:02:16.976Z,4.90
2019-04-21T11:03:17.068Z,5.00
2019-04-21T11:04:23.102Z,5.00
2019-04-21T11:05:16.818Z,4.90
2019-04-21T11:06:16.877Z,5.40
2019-04-21T11:07:19.218Z,4.90
2019-04-21T11:08:23.045Z,5.20
2019-04-21T11:09:17.797Z,4.90
2019-04-21T11:10:16.123Z,5.20
2019-04-21T11:11:16.239Z,5.00
2019-04-21T11:12:15.642Z,4.80
2019-04-21T11:13:16.555Z,5.00
2019-04-21T11:14:15.525Z,5.40
2019-04-21T11:15:15.381Z,4.70
2019-04-21T11:16:15.416Z,4.90
2019-04-21T11:17:16.450Z,4.90
2019-04-21T11:18:15.715Z,5.00
2019-04-21T11:19:15.952Z,4.80
2019-04-21T11:20:15.363Z,4.70
2019-04-21T11:21:16.541Z,5.10
2019-04-21T11:22:16.687Z,4.50
2019-04-21T11:23:18.029Z,5.10
2019-04-21T11:24:16.236Z,4.60
2019-04-21T11:25:15.830Z,4.60
2019-04-21T11:26:16.035Z,4.10
2019-04-21T11:27:15.248Z,4.70
2019-04-21T11:28:23.043Z,4.50
2019-04-21T11:29:15.224Z,4.60
2019-04-21T11:30:15.745Z,4.40
2019-04-21T11:31:15.525Z,4.40
2019-04-21T11:32:15.237Z,4.40
2019-04-21T11:33:15.404Z,4.70
2019-04-21T11:34:15.586Z,4.50
2019-04-21T11:35:15.173Z,4.20
2019-04-21T11:36:15.588Z,4.60
2019-04-21T11:37:16.341Z,4.30
2019-04-21T11:38:20.422Z,4.00
2019-04-21T11:39:28.523Z,4.50
2019-04-21T11:40:18.536Z,4.10
2019-04-21T11:41:16.051Z,4.10
2019-04-21T11:42:15.605Z,4.40
2019-04-21T11:43:15.753Z,4.60
2019-04-21T11:44:16.222Z,4.50
2019-04-21T11:45:16.525Z,4.40
2019-04-21T11:46:16.213Z,3.90
2019-04-21T11:47:16.289Z,3.80
2019-04-21T11:48:16.521Z,4.20
2019-04-21T11:49:15.831Z,4.20
2019-04-21T11:50:15.077Z,4.30
2019-04-21T11:51:15.256Z,4.00
2019-04-21T11:52:15.055Z,4.10
2019-04-21T11:53:14.967Z,3.80
2019-04-21T11:54:15.172Z,4.20
2019-04-21T11:55:14.955Z,4.10
2019-04-21T11:56:14.943Z,4.10
2019-04-21T11:57:22.050Z,4.40
2019-04-21T11:58:16.015Z,4.00
2019-04-21T11:59:15.540Z,4.20
2019-04-21T12:00:15.775Z,4.00
2019-04-21T12:01:15.848Z,4.00
2019-04-21T12:02:15.225Z,3.60
2019-04-21T12:03:15.698Z,3.80
2019-04-21T12:04:16.099Z,3.80
2019-04-21T12:05:15.195Z,4.00
2019-04-21T12:06:15.450Z,3.80
2019-04-21T12:07:15.442Z,3.60
2019-04-21T12:08:23.134Z,4.30
2019-04-21T12:09:16.891Z,3.50
2019-04-21T12:10:15.502Z,3.80
2019-04-21T12:11:15.926Z,3.70
2019-04-21T12:12:15.067Z,3.90
2019-04-21T12:13:16.150Z,3.90
2019-04-21T12:14:14.774Z,3.70
2019-04-21T12:15:14.739Z,3.60
2019-04-21T12:16:15.003Z,3.80
2019-04-21T12:17:16.034Z,3.40
2019-04-21T12:18:15.540Z,3.60
2019-04-21T12:19:14.684Z,3.70
2019-04-21T12:20:14.808Z,3.80
2019-04-21T12:21:15.715Z,3.50
2019-04-21T12:22:21.259Z,3.50
2019-04-21T12:23:16.345Z,3.60
2019-04-21T12:24:15.263Z,3.70
2019-04-21T12:25:15.519Z,3.60
2019-04-21T12:26:15.841Z,3.80
2019-04-21T12:27:16.061Z,3.70
2019-04-21T12:28:15.976Z,3.70
2019-04-21T12:29:14.688Z,3.30
2019-04-21T12:30:15.670Z,3.60
2019-04-21T12:31:15.710Z,3.70
2019-04-21T12:32:15.829Z,3.30
2019-04-21T12:33:16.073Z,3.40
2019-04-21T12:34:14.547Z,3.40
2019-04-21T12:35:15.737Z,3.40
2019-04-21T12:36:15.750Z,3.70
2019-04-21T12:37:15.089Z,3.50
2019-04-21T12:38:14.530Z,3.50
2019-04-21T12:39:14.914Z,3.60
2019-04-21T12:40:14.794Z,3.50
2019-04-21T12:41:14.878Z,3.60
2019-04-21T12:42:14.555Z,3.90
2019-04-21T12:43:14.789Z,3.40
2019-04-21T12:44:14.891Z,3.60
2019-04-21T12:45:15.199Z,3.40
2019-04-21T12:46:14.411Z,3.90
2019-04-21T12:47:14.373Z,3.70
2019-04-21T12:48:15.846Z,3.20
2019-04-21T12:49:14.385Z,3.50
2019-04-21T12:50:14.839Z,3.50
2019-04-21T12:51:15.568Z,3.60
2019-04-21T12:52:15.525Z,3.70
2019-04-21T12:53:16.055Z,3.50
2019-04-21T12:54:15.473Z,3.50
2019-04-21T12:55:15.481Z,3.40
2019-04-21T12:56:15.687Z,3.40
2019-04-21T12:57:14.271Z,3.40
2019-04-21T12:58:15.285Z,3.70
2019-04-21T12:59:14.939Z,3.40
2019-04-21T13:00:15.127Z,3.60
2019-04-21T13:01:14.715Z,3.50
2019-04-21T13:02:14.215Z,3.70
2019-04-21T13:03:14.298Z,3.30
2019-04-21T13:04:15.334Z,3.20
2019-04-21T13:05:14.211Z,3.10
2019-04-21T13:06:14.180Z,3.50
2019-04-21T13:07:15.362Z,3.50
2019-04-21T13:08:15.362Z,3.10
2019-04-21T13:09:17.914Z,3.90
2019-04-21T13:10:16.127Z,3.50
2019-04-21T13:11:15.026Z,3.70
2019-04-21T13:12:15.212Z,3.50
2019-04-21T13:13:14.428Z,3.30
2019-04-21T13:14:14.110Z,3.50
2019-04-21T13:15:15.608Z,3.20
2019-04-21T13:16:14.086Z,3.70
2019-04-21T13:17:15.158Z,3.70
2019-04-21T13:18:14.406Z,4.60
2019-04-21T13:19:15.372Z,4.80
2019-04-21T13:20:14.975Z,4.30
2019-04-21T13:21:14.198Z,5.40
2019-04-21T13:22:14.248Z,5.60
2019-04-21T13:23:13.978Z,5.50
2019-04-21T13:24:13.975Z,5.30
2019-04-21T13:25:14.160Z,5.30
2019-04-21T13:26:16.129Z,5.70
2019-04-21T13:27:15.600Z,5.80
2019-04-21T13:28:14.693Z,5.80
2019-04-21T13:29:14.554Z,5.60
2019-04-21T13:30:14.651Z,5.70
2019-04-21T13:31:14.103Z,5.90
2019-04-21T13:32:14.407Z,5.50
2019-04-21T13:33:15.307Z,5.60
2019-04-21T13:34:14.062Z,5.50
2019-04-21T13:35:15.085Z,5.20
2019-04-21T13:36:14.050Z,5.50
2019-04-21T13:37:15.152Z,5.50
2019-04-21T13:38:23.137Z,5.10
2019-04-21T13:39:44.720Z,5.70
2019-04-21T13:40:35.725Z,4.90
2019-04-21T13:41:29.779Z,5.30
2019-04-21T13:42:23.993Z,5.20
2019-04-21T13:43:15.008Z,5.00
2019-04-21T13:44:15.496Z,5.80
2019-04-21T13:45:14.085Z,5.30
2019-04-21T13:46:13.775Z,5.30
2019-04-21T13:47:14.544Z,6.00
2019-04-21T13:48:14.773Z,4.90
2019-04-21T13:49:13.773Z,5.30
2019-04-21T13:50:15.131Z,5.60
2019-04-21T13:51:13.724Z,5.10
2019-04-21T13:52:14.908Z,4.70
2019-04-21T13:53:14.679Z,5.20
2019-04-21T13:54:14.001Z,5.50
2019-04-21T13:55:13.984Z,5.20
2019-04-21T13:56:14.308Z,5.20
2019-04-21T13:57:14.425Z,5.20
2019-04-21T13:58:14.579Z,5.10
2019-04-21T13:59:14.097Z,4.70
2019-04-21T14:00:15.027Z,4.90
2019-04-21T14:01:13.908Z,4.80
2019-04-21T14:02:13.600Z,5.50
2019-04-21T14:03:14.572Z,5.40
2019-04-21T14:04:13.743Z,5.50
2019-04-21T14:05:15.585Z,5.30
2019-04-21T14:06:14.137Z,4.80
2019-04-21T14:07:14.327Z,5.40
2019-04-21T14:08:13.558Z,5.20